Time;durP1;ratioP1;P1;durP2;ratioP2;P2;SDS_P1;SDS_P2;PMS_P1;PMS_P2;Temp;Humidity;BMP_temperature;BMP_pressure;BME280_temperature;BME280_humidity;BME280_pressure;Samples;Min_cycle;Max_cycle;Signal;HPM_P1;HPM_P2
2023/04/24 00:02:15;;;;;;;12.68;7.18;;;;;;;16.39;44.36;98389.03;4380986;32;34209;-94
2023/04/24 00:04:46;;;;;;;11.77;7.07;;;;;;;16.28;43.52;98381.44;4387820;32;33522;-91
2023/04/24 00:07:14;;;;;;;11.35;6.87;;;;;;;16.30;44.85;98387.50;4351950;32;33375;-89
2023/04/24 00:09:41;;;;;;;10.45;6.40;;;;;;;16.36;44.77;98384.72;4377958;32;33567;-96
2023/04/24 00:12:10;;;;;;;10.45;7.25;;;;;;;16.31;44.40;98386.59;4377462;32;34137;-94
2023/04/24 00:14:38;;;;;;;12.00;7.62;;;;;;;16.21;44.22;98382.47;4389119;32;34059;-92
2023/04/24 00:17:05;;;;;;;14.30;7.68;;;;;;;16.26;44.99;98378.00;4393346;32;33635;-95
2023/04/24 00:19:33;;;;;;;11.65;7.50;;;;;;;16.46;45.32;98380.16;4387505;32;33982;-96
2023/04/24 00:22:02;;;;;;;14.60;7.97;;;;;;;16.42;48.54;98376.75;4378627;32;33777;-95
2023/04/24 00:24:30;;;;;;;16.60;9.00;;;;;;;16.50;49.28;98382.66;4362987;32;34887;-94
2023/04/24 00:26:57;;;;;;;15.93;10.32;;;;;;;16.22;50.47;98384.22;4377470;32;34336;-92
2023/04/24 00:29:25;;;;;;;13.95;9.75;;;;;;;15.82;52.57;98378.06;4363475;32;34246;-90
2023/04/24 00:31:52;;;;;;;16.75;10.32;;;;;;;16.07;52.03;98379.31;4368157;32;34222;-84
2023/04/24 00:34:20;;;;;;;11.43;9.35;;;;;;;15.81;53.20;98378.13;4373097;32;33880;-85
2023/04/24 00:36:50;;;;;;;16.48;9.98;;;;;;;15.93;52.38;98370.00;4366039;32;33660;-89
2023/04/24 00:39:19;;;;;;;13.98;9.25;;;;;;;15.78;53.43;98372.94;4383387;32;34295;-89
2023/04/24 00:41:47;;;;;;;12.95;9.80;;;;;;;15.81;53.50;98365.91;4378152;32;34696;-87
2023/04/24 00:44:15;;;;;;;15.73;10.00;;;;;;;15.75;53.55;98362.56;4373077;32;33956;-96
2023/04/24 00:46:42;;;;;;;11.32;8.88;;;;;;;15.74;53.08;98363.44;4381284;32;33601;-94
2023/04/24 00:49:10;;;;;;;13.98;9.05;;;;;;;15.23;53.28;98356.59;4376797;32;33982;-93
2023/04/24 00:51:40;;;;;;;13.57;9.77;;;;;;;15.37;53.06;98368.50;4376471;32;33704;-93
2023/04/24 00:54:07;;;;;;;14.63;8.95;;;;;;;15.31;53.95;98359.91;4377866;32;33876;-92
2023/04/24 00:56:35;;;;;;;16.80;10.15;;;;;;;15.40;52.95;98356.25;4380444;32;33161;-95
2023/04/24 00:59:04;;;;;;;15.60;8.63;;;;;;;15.16;54.22;98367.19;4360158;32;34015;-94
2023/04/24 01:01:32;;;;;;;15.45;9.05;;;;;;;15.49;51.59;98356.09;4371210;32;33825;-91
2023/04/24 01:04:00;;;;;;;14.18;8.82;;;;;;;15.38;53.24;98354.56;4369600;32;34267;-85
2023/04/24 01:06:31;;;;;;;12.52;8.70;;;;;;;15.40;52.88;98355.41;4389023;32;33302;-87
2023/04/24 01:08:59;;;;;;;14.02;8.35;;;;;;;15.18;49.06;98342.75;4373821;32;33637;-94
2023/04/24 01:11:29;;;;;;;13.48;8.30;;;;;;;15.19;49.73;98346.22;4372284;32;33818;-93
2023/04/24 01:13:58;;;;;;;11.50;8.73;;;;;;;15.32;50.25;98348.56;4381637;32;33690;-93
2023/04/24 01:16:26;;;;;;;13.88;9.07;;;;;;;15.36;51.08;98348.53;4365735;32;33631;-92
2023/04/24 01:18:54;;;;;;;13.23;8.90;;;;;;;15.62;50.02;98340.16;4383472;32;34016;-95
2023/04/24 01:21:23;;;;;;;13.20;8.57;;;;;;;15.52;48.70;98329.03;4376702;32;34156;-93
2023/04/24 01:23:51;;;;;;;12.98;8.32;;;;;;;15.42;50.45;98328.38;4378668;32;34198;-96
2023/04/24 01:26:19;;;;;;;18.83;9.88;;;;;;;15.38;49.44;98316.28;4380572;32;33280;-93
2023/04/24 01:28:48;;;;;;;16.17;8.80;;;;;;;15.27;48.85;98310.41;4383205;32;34327;-90
2023/04/24 01:31:15;;;;;;;13.95;9.57;;;;;;;15.07;50.18;98314.22;4364637;32;34082;-94
2023/04/24 01:33:43;;;;;;;12.05;8.32;;;;;;;15.17;51.33;98317.53;4373357;32;34717;-96
2023/04/24 01:36:11;;;;;;;15.85;10.15;;;;;;;14.81;51.67;98311.25;4381613;32;33624;-91
2023/04/24 01:38:38;;;;;;;16.35;9.80;;;;;;;15.08;51.75;98310.75;4372234;32;33789;-94
2023/04/24 01:41:06;;;;;;;14.45;9.90;;;;;;;14.71;52.76;98305.34;4381519;32;34942;-87
2023/04/24 01:43:33;;;;;;;15.68;9.48;;;;;;;14.53;53.92;98306.50;4368884;32;33933;-96
2023/04/24 01:46:01;;;;;;;15.20;9.38;;;;;;;14.16;55.00;98310.56;4374610;32;32939;-96
2023/04/24 01:48:30;;;;;;;12.80;10.13;;;;;;;14.55;54.35;98299.53;4384371;32;33513;-90
2023/04/24 01:50:57;;;;;;;12.02;9.80;;;;;;;15.09;53.49;98296.81;4377421;32;33642;-96
2023/04/24 01:53:25;;;;;;;13.93;9.63;;;;;;;14.66;54.52;98290.62;4382463;32;33678;-93
2023/04/24 01:55:52;;;;;;;14.02;10.10;;;;;;;14.52;55.71;98293.50;4365722;32;32638;-94
2023/04/24 01:58:20;;;;;;;17.35;10.93;;;;;;;14.26;56.64;98286.09;4378014;32;34017;-93
2023/04/24 02:00:47;;;;;;;13.52;9.95;;;;;;;14.48;56.34;98279.63;4352425;32;33465;-93
2023/04/24 02:03:15;;;;;;;14.35;10.18;;;;;;;14.38;56.58;98275.44;4367624;32;34181;-94
2023/04/24 02:05:46;;;;;;;13.57;9.65;;;;;;;14.65;55.84;98273.28;4370278;32;32644;-85
2023/04/24 02:08:13;;;;;;;14.10;9.45;;;;;;;14.63;57.13;98275.06;4365536;32;32680;-92
2023/04/24 02:10:41;;;;;;;17.20;11.18;;;;;;;15.06;55.49;98275.97;4380365;32;34273;-85
2023/04/24 02:13:09;;;;;;;14.85;9.88;;;;;;;14.92;57.86;98279.72;4376829;32;34187;-93
2023/04/24 02:15:36;;;;;;;12.45;9.40;;;;;;;14.96;56.76;98269.19;4377531;32;33584;-96
2023/04/24 02:18:03;;;;;;;13.55;10.43;;;;;;;14.98;57.60;98275.25;4377321;32;34052;-91
2023/04/24 02:20:33;;;;;;;14.82;9.93;;;;;;;15.22;56.97;98271.28;4383639;32;34062;-94
2023/04/24 02:23:01;;;;;;;12.10;9.05;;;;;;;15.31;56.72;98265.06;4371890;32;34563;-89
2023/04/24 02:25:28;;;;;;;11.20;8.95;;;;;;;15.40;56.47;98269.22;4364368;32;33099;-93
2023/04/24 02:27:56;;;;;;;12.57;9.70;;;;;;;15.24;56.46;98274.75;4379148;32;33671;-94
2023/04/24 02:30:24;;;;;;;15.52;9.77;;;;;;;15.53;55.76;98266.31;4376819;32;33963;-92
2023/04/24 02:32:51;;;;;;;12.68;8.98;;;;;;;15.28;54.84;98265.09;4376201;32;34552;-96
2023/04/24 02:35:19;;;;;;;14.73;10.20;;;;;;;15.14;55.53;98260.16;4387233;32;33264;-91
2023/04/24 02:37:47;;;;;;;15.07;9.75;;;;;;;14.99;55.78;98253.47;4381546;32;33643;-91
2023/04/24 02:40:14;;;;;;;15.07;9.85;;;;;;;15.21;55.54;98259.16;4368868;32;34879;-93
2023/04/24 02:42:42;;;;;;;18.60;10.80;;;;;;;15.55;55.30;98263.66;4363219;32;33705;-95
2023/04/24 02:45:10;;;;;;;14.05;9.23;;;;;;;15.40;55.15;98257.00;4370807;32;33630;-96
2023/04/24 02:47:37;;;;;;;14.50;9.52;;;;;;;15.52;55.72;98261.97;4381238;32;34878;-94
2023/04/24 02:50:06;;;;;;;15.68;9.32;;;;;;;15.22;55.50;98265.22;4378462;32;35103;-95
2023/04/24 02:52:33;;;;;;;15.48;9.70;;;;;;;15.25;55.40;98257.34;4395266;32;34216;-96
2023/04/24 02:55:01;;;;;;;15.25;10.57;;;;;;;15.09;55.84;98241.97;4367958;32;33777;-95
2023/04/24 02:57:28;;;;;;;17.08;10.02;;;;;;;15.40;55.52;98249.16;4367761;32;32466;-90
2023/04/24 02:59:56;;;;;;;14.35;9.02;;;;;;;15.61;54.88;98249.59;4382076;32;34450;-95
2023/04/24 03:02:23;;;;;;;14.35;9.70;;;;;;;15.74;54.20;98246.72;4387893;32;34524;-95
2023/04/24 03:04:51;;;;;;;11.80;8.02;;;;;;;15.73;53.88;98245.00;4379571;32;33531;-94
2023/04/24 03:07:20;;;;;;;12.55;8.82;;;;;;;15.52;53.21;98243.69;4372938;32;33185;-93
2023/04/24 03:09:48;;;;;;;12.27;9.18;;;;;;;15.57;54.02;98231.41;4378131;32;35066;-96
2023/04/24 03:12:17;;;;;;;12.55;9.35;;;;;;;15.74;54.94;98233.66;4376281;32;36227;-85
2023/04/24 03:14:45;;;;;;;14.15;8.27;;;;;;;15.67;54.80;98232.06;4376395;32;33422;-94
2023/04/24 03:17:12;;;;;;;13.90;8.73;;;;;;;15.79;53.43;98241.37;4363850;32;34746;-92
2023/04/24 03:19:40;;;;;;;11.65;8.30;;;;;;;15.75;53.31;98232.75;4391943;32;34219;-85
2023/04/24 03:22:09;;;;;;;12.18;8.48;;;;;;;15.53;54.02;98236.69;4365053;32;33859;-90
2023/04/24 03:24:36;;;;;;;11.77;8.40;;;;;;;15.69;54.87;98240.75;4367815;32;32386;-94
2023/04/24 03:27:04;;;;;;;15.10;8.60;;;;;;;15.68;54.20;98235.53;4366823;32;34199;-95
2023/04/24 03:29:32;;;;;;;12.95;8.73;;;;;;;15.63;54.36;98232.13;4383601;32;33946;-96
2023/04/24 03:32:00;;;;;;;11.82;8.27;;;;;;;15.77;53.03;98236.19;4364871;32;33482;-95
2023/04/24 03:34:28;;;;;;;13.20;8.60;;;;;;;15.66;53.24;98234.72;4391254;32;34282;-86
2023/04/24 03:36:56;;;;;;;11.65;8.82;;;;;;;15.29;54.49;98225.91;4379455;32;33835;-88
2023/04/24 03:39:25;;;;;;;12.80;9.20;;;;;;;15.08;55.30;98229.81;4380620;32;34006;-88
2023/04/24 03:41:53;;;;;;;13.88;8.98;;;;;;;15.25;55.16;98226.00;4383132;32;34317;-96
2023/04/24 03:44:21;;;;;;;12.07;8.93;;;;;;;15.49;54.54;98216.75;4378489;32;33751;-94
2023/04/24 03:46:48;;;;;;;15.93;9.55;;;;;;;15.28;55.41;98212.88;4379570;32;33791;-90
2023/04/24 03:49:16;;;;;;;11.35;8.77;;;;;;;14.73;56.04;98214.84;4369999;32;34373;-96
2023/04/24 03:51:45;;;;;;;11.60;8.60;;;;;;;15.15;55.88;98207.03;4386889;32;34102;-95
2023/04/24 03:54:14;;;;;;;10.25;7.87;;;;;;;15.33;54.17;98205.78;4370666;32;32439;-94
2023/04/24 03:56:41;;;;;;;13.38;9.32;;;;;;;15.39;53.75;98210.91;4381660;32;34740;-96
2023/04/24 03:59:09;;;;;;;10.60;8.15;;;;;;;15.64;54.34;98207.72;4380451;32;34657;-88
2023/04/24 04:01:37;;;;;;;13.73;9.20;;;;;;;15.40;55.35;98220.44;4365776;32;33831;-84
2023/04/24 04:04:09;;;;;;;15.48;8.75;;;;;;;15.33;53.00;98226.69;4381333;32;33494;-96
2023/04/24 04:06:37;;;;;;;13.68;8.85;;;;;;;15.61;54.50;98228.69;4380121;32;34379;-93
2023/04/24 04:09:04;;;;;;;13.65;9.60;;;;;;;15.73;53.80;98231.06;4379919;32;34269;-96
2023/04/24 04:11:32;;;;;;;13.38;9.95;;;;;;;15.32;54.07;98230.19;4381248;32;33600;-92
2023/04/24 04:14:00;;;;;;;15.23;9.73;;;;;;;14.82;56.46;98225.13;4380239;32;34208;-93
2023/04/24 04:16:29;;;;;;;18.17;10.90;;;;;;;15.10;56.53;98216.72;4376174;32;33724;-84
2023/04/24 04:18:59;;;;;;;15.05;11.15;;;;;;;14.51;59.68;98231.81;4369345;32;34175;-94
2023/04/24 04:21:26;;;;;;;14.18;10.52;;;;;;;14.91;57.85;98233.66;4377431;32;33715;-93
2023/04/24 04:23:56;;;;;;;14.68;10.60;;;;;;;14.39;57.95;98224.16;4388916;32;33642;-96
2023/04/24 04:26:25;;;;;;;14.63;11.00;;;;;;;14.57;57.05;98240.34;4371336;32;32698;-93
2023/04/24 04:28:53;;;;;;;14.55;11.10;;;;;;;14.16;58.66;98241.03;4383045;32;33756;-95
2023/04/24 04:31:21;;;;;;;14.87;11.60;;;;;;;14.48;57.74;98235.28;4376177;32;33807;-85
2023/04/24 04:33:49;;;;;;;16.62;11.45;;;;;;;14.12;59.11;98236.75;4380169;32;33712;-85
2023/04/24 04:36:18;;;;;;;15.77;12.35;;;;;;;13.63;60.84;98235.75;4382584;32;34109;-92
2023/04/24 04:38:46;;;;;;;17.40;11.60;;;;;;;14.12;59.55;98227.19;4379076;32;32734;-91
2023/04/24 04:41:16;;;;;;;16.70;11.82;;;;;;;14.51;58.14;98222.22;4365954;32;33423;-85
2023/04/24 04:43:46;;;;;;;17.83;12.60;;;;;;;14.54;57.68;98227.38;4383876;32;34344;-89
2023/04/24 04:46:14;;;;;;;13.65;10.90;;;;;;;14.59;57.74;98222.94;4363082;32;34781;-85
2023/04/24 04:48:43;;;;;;;18.35;11.40;;;;;;;14.84;56.84;98225.06;4383523;32;33796;-90
2023/04/24 04:51:10;;;;;;;16.48;11.63;;;;;;;14.37;57.76;98226.78;4377574;32;34751;-87
2023/04/24 04:53:38;;;;;;;17.37;11.30;;;;;;;14.59;58.13;98222.94;4377164;32;34093;-84
2023/04/24 04:56:06;;;;;;;15.05;12.25;;;;;;;14.87;58.27;98225.03;4377143;32;34642;-90
2023/04/24 04:58:34;;;;;;;13.95;11.45;;;;;;;14.98;57.50;98223.06;4386072;32;35003;-95
2023/04/24 05:01:02;;;;;;;14.87;11.82;;;;;;;15.04;57.23;98227.31;4391906;32;34155;-90
2023/04/24 05:03:30;;;;;;;16.30;11.25;;;;;;;15.00;57.81;98223.03;4366778;32;32651;-86
2023/04/24 05:05:59;;;;;;;15.75;11.48;;;;;;;14.95;58.32;98214.44;4357210;32;33343;-86
2023/04/24 05:08:26;;;;;;;17.85;12.18;;;;;;;15.37;56.47;98217.87;4377468;32;33825;-94
2023/04/24 05:10:55;;;;;;;18.42;11.82;;;;;;;14.92;59.56;98231.00;4377302;32;34118;-85
2023/04/24 05:13:22;;;;;;;16.37;11.52;;;;;;;14.92;57.74;98224.94;4376843;32;32911;-92
2023/04/24 05:16:06;;;;;;;14.13;11.68;;;;;;;14.95;56.84;98214.44;4389580;32;33881;-92
2023/04/24 05:18:34;;;;;;;18.40;12.05;;;;;;;15.31;56.48;98218.03;4392036;32;34208;-95
2023/04/24 05:21:02;;;;;;;15.45;11.10;;;;;;;15.06;56.26;98217.69;4370004;32;33460;-94
2023/04/24 05:23:30;;;;;;;20.20;10.95;;;;;;;14.81;57.49;98215.59;4386451;32;34726;-92
2023/04/24 05:25:57;;;;;;;15.93;11.05;;;;;;;14.43;58.52;98216.22;4380499;32;35199;-96
2023/04/24 05:28:28;;;;;;;17.05;11.93;;;;;;;14.52;59.30;98223.94;4365337;32;34577;-86
2023/04/24 05:30:59;;;;;;;16.77;11.68;;;;;;;14.96;58.07;98214.38;4366257;32;33126;-94
2023/04/24 05:33:26;;;;;;;16.35;11.18;;;;;;;14.66;58.29;98222.81;4381643;32;33121;-93
2023/04/24 05:35:54;;;;;;;17.77;11.48;;;;;;;14.82;57.88;98222.50;4379885;32;33939;-93
2023/04/24 05:38:22;;;;;;;17.25;11.12;;;;;;;14.72;58.59;98223.56;4384639;32;33988;-91
2023/04/24 05:40:50;;;;;;;15.15;10.48;;;;;;;14.62;58.42;98221.16;4389182;32;34437;-85
2023/04/24 05:43:17;;;;;;;17.30;12.18;;;;;;;14.74;58.28;98218.34;4373609;32;32705;-94
2023/04/24 05:45:45;;;;;;;14.52;11.45;;;;;;;14.77;58.73;98216.53;4385392;32;34014;-86
2023/04/24 05:48:13;;;;;;;16.62;11.68;;;;;;;14.71;58.56;98221.00;4390745;32;34239;-95
2023/04/24 05:50:40;;;;;;;17.15;11.48;;;;;;;14.78;58.74;98223.47;4397621;32;34743;-93
2023/04/24 05:53:10;;;;;;;18.83;12.77;;;;;;;14.57;59.48;98219.50;4377991;32;33441;-96
2023/04/24 05:55:38;;;;;;;14.00;11.68;;;;;;;14.43;59.66;98231.03;4393184;32;34074;-96
2023/04/24 05:58:06;;;;;;;16.00;12.00;;;;;;;14.39;60.45;98225.00;4379452;32;34254;-90
2023/04/24 06:00:34;;;;;;;16.08;11.50;;;;;;;14.87;59.02;98242.44;4380564;32;33186;-88
2023/04/24 06:03:03;;;;;;;17.55;11.70;;;;;;;14.61;59.41;98230.72;4378057;32;33407;-94
2023/04/24 06:05:31;;;;;;;15.57;11.45;;;;;;;14.91;58.60;98234.50;4378770;32;34109;-96
2023/04/24 06:07:59;;;;;;;15.93;12.18;;;;;;;14.66;59.27;98238.47;4378557;32;34003;-92
2023/04/24 06:10:27;;;;;;;18.40;12.80;;;;;;;14.12;60.62;98239.38;4380219;32;33934;-96
2023/04/24 06:13:00;;;;;;;16.75;12.70;;;;;;;14.44;60.81;98228.41;4367735;32;33206;-96
2023/04/24 06:15:30;;;;;;;17.35;13.40;;;;;;;14.64;61.62;98242.88;4367878;32;33226;-84
2023/04/24 06:17:58;;;;;;;16.27;12.27;;;;;;;14.86;62.10;98240.72;4367501;32;34555;-83
2023/04/24 06:20:26;;;;;;;19.35;13.70;;;;;;;14.70;62.25;98229.69;4386478;32;34079;-96
2023/04/24 06:22:54;;;;;;;19.05;13.43;;;;;;;14.89;62.16;98241.53;4387528;32;34137;-93
2023/04/24 06:25:21;;;;;;;22.62;14.68;;;;;;;14.54;63.37;98235.19;4369837;32;34113;-96
2023/04/24 06:27:50;;;;;;;16.52;13.57;;;;;;;14.71;62.96;98234.91;4385059;32;34318;-96
2023/04/24 06:30:18;;;;;;;17.77;14.10;;;;;;;14.49;62.76;98238.75;4389489;32;34639;-96
2023/04/24 06:32:45;;;;;;;17.83;14.63;;;;;;;14.42;64.31;98234.53;4392931;32;33996;-85
2023/04/24 06:35:15;;;;;;;17.23;13.45;;;;;;;14.29;65.37;98234.75;4381398;32;34646;-84
2023/04/24 06:37:43;;;;;;;20.05;15.05;;;;;;;14.53;64.11;98233.47;4367567;32;33333;-90
2023/04/24 06:40:10;;;;;;;19.35;13.95;;;;;;;14.29;64.93;98234.75;4386580;32;34136;-93
2023/04/24 06:42:38;;;;;;;21.77;15.48;;;;;;;14.38;65.22;98231.13;4389733;32;33282;-90
2023/04/24 06:45:08;;;;;;;17.85;14.00;;;;;;;14.45;65.31;98232.72;4392736;32;33979;-85
2023/04/24 06:47:37;;;;;;;22.00;14.32;;;;;;;14.18;65.39;98234.06;4382491;32;33718;-88
2023/04/24 06:50:05;;;;;;;19.42;15.18;;;;;;;14.68;64.13;98221.06;4377183;32;34676;-86
2023/04/24 06:52:33;;;;;;;22.17;14.32;;;;;;;14.56;64.26;98232.56;4377330;32;34165;-86
2023/04/24 06:55:04;;;;;;;20.10;15.30;;;;;;;14.78;63.35;98233.03;4380175;32;33164;-84
2023/04/24 06:57:32;;;;;;;18.35;15.45;;;;;;;14.28;65.03;98229.53;4379308;32;178538;-86
2023/04/24 07:00:00;;;;;;;20.65;14.18;;;;;;;14.39;64.73;98229.34;4392779;32;34014;-83
2023/04/24 07:02:27;;;;;;;18.73;15.38;;;;;;;14.29;64.74;98239.09;4383291;32;33612;-82
2023/04/24 07:04:55;;;;;;;20.45;15.55;;;;;;;14.24;65.40;98225.28;4381677;32;33883;-83
2023/04/24 07:07:23;;;;;;;23.02;14.95;;;;;;;14.25;65.70;98238.31;4382876;32;34522;-83
2023/04/24 07:09:51;;;;;;;20.17;14.43;;;;;;;14.36;64.99;98235.50;4385882;32;34546;-84
2023/04/24 07:12:21;;;;;;;19.27;15.10;;;;;;;14.28;65.30;98234.75;4381775;32;33624;-96
2023/04/24 07:14:50;;;;;;;18.45;13.82;;;;;;;14.48;64.86;98235.28;4379058;32;34861;-94
2023/04/24 07:17:17;;;;;;;18.02;13.85;;;;;;;14.60;63.84;98232.47;4368795;32;33824;-82
2023/04/24 07:19:47;;;;;;;17.10;13.07;;;;;;;14.49;63.74;98224.00;4375361;32;32077;-83
2023/04/24 07:22:16;;;;;;;19.70;14.60;;;;;;;14.24;65.26;98226.13;4397175;32;33522;-83
2023/04/24 07:24:44;;;;;;;20.52;14.95;;;;;;;14.58;64.81;98221.25;4386494;32;34092;-86
2023/04/24 07:27:12;;;;;;;18.90;13.18;;;;;;;14.60;65.02;98214.22;4389765;32;34364;-84
2023/04/24 07:29:39;;;;;;;18.95;13.10;;;;;;;14.71;64.03;98211.41;4382624;32;34043;-83
2023/04/24 07:32:11;;;;;;;21.25;13.25;;;;;;;14.86;64.10;98219.84;4386865;32;33661;-82
2023/04/24 07:34:40;;;;;;;16.62;11.80;;;;;;;15.32;64.20;98219.75;4386442;32;35266;-82
2023/04/24 07:37:08;;;;;;;15.45;12.40;;;;;;;15.89;60.93;98219.38;4390702;32;34188;-83
2023/04/24 07:39:35;;;;;;;16.35;12.13;;;;;;;16.07;60.13;98217.22;4398205;32;33978;-95
2023/04/24 07:42:03;;;;;;;15.75;11.38;;;;;;;15.78;61.01;98223.97;4390089;32;33163;-89
2023/04/24 07:44:31;;;;;;;15.40;10.63;;;;;;;15.90;61.01;98223.69;4386117;32;33910;-83
2023/04/24 07:46:59;;;;;;;15.60;11.65;;;;;;;16.16;59.65;98236.12;4399736;32;34689;-82
2023/04/24 07:49:27;;;;;;;16.12;10.75;;;;;;;16.04;60.68;98226.84;4402105;32;34497;-82
2023/04/24 07:51:55;;;;;;;15.52;11.35;;;;;;;16.55;60.24;98236.00;4376135;32;33553;-83
2023/04/24 07:54:22;;;;;;;15.88;10.48;;;;;;;16.61;58.83;98228.00;4373598;32;33895;-94
2023/04/24 07:56:50;;;;;;;15.55;10.65;;;;;;;17.11;58.70;98232.78;4385945;32;34826;-96
2023/04/24 07:59:20;;;;;;;14.77;10.57;;;;;;;17.37;58.39;98222.41;4384825;32;34123;-93
2023/04/24 08:01:47;;;;;;;17.92;11.77;;;;;;;16.56;58.86;98219.44;4372557;32;32304;-84
2023/04/24 08:04:15;;;;;;;19.05;12.02;;;;;;;16.49;59.85;98223.09;4393476;32;34017;-84
2023/04/24 08:06:43;;;;;;;15.65;11.00;;;;;;;16.43;59.35;98221.50;4399721;32;34229;-96
2023/04/24 08:09:12;;;;;;;15.38;11.00;;;;;;;16.48;59.83;98221.41;4388069;32;33621;-94
2023/04/24 08:11:40;;;;;;;15.10;10.52;;;;;;;16.29;59.54;98219.25;4389113;32;33850;-94
2023/04/24 08:14:07;;;;;;;17.92;10.25;;;;;;;16.24;59.06;98220.25;4390059;32;35262;-85
2023/04/24 08:16:35;;;;;;;19.73;11.00;;;;;;;16.63;57.51;98210.53;4392131;32;33960;-87
2023/04/24 08:19:03;;;;;;;15.30;10.60;;;;;;;16.68;57.70;98213.00;4379036;32;34055;-82
2023/04/24 08:21:30;;;;;;;14.57;9.55;;;;;;;16.68;57.36;98213.00;4406427;32;33377;-82
2023/04/24 08:23:57;;;;;;;14.73;10.73;;;;;;;16.60;56.88;98214.97;4381115;32;33332;-85
2023/04/24 08:26:25;;;;;;;13.73;10.02;;;;;;;16.90;55.96;98219.41;4394220;32;35332;-83
2023/04/24 08:28:52;;;;;;;14.07;9.85;;;;;;;16.92;55.77;98219.34;4392084;32;33872;-83
2023/04/24 08:31:20;;;;;;;16.95;10.30;;;;;;;16.77;56.62;98220.62;4394289;32;33745;-87
2023/04/24 08:33:48;;;;;;;14.95;9.93;;;;;;;16.46;57.41;98216.19;4396857;32;33883;-96
2023/04/24 08:36:16;;;;;;;11.80;9.02;;;;;;;16.88;55.94;98212.50;4376444;32;34048;-96
2023/04/24 08:38:43;;;;;;;15.73;9.73;;;;;;;17.37;55.42;98211.94;4386241;32;34318;-85
2023/04/24 08:41:11;;;;;;;14.05;9.70;;;;;;;17.16;54.94;98209.94;4391277;32;32850;-82
2023/04/24 08:43:38;;;;;;;14.60;10.15;;;;;;;17.55;54.52;98228.88;4381795;27;33463;-83
2023/04/24 08:46:06;;;;;;;12.65;8.90;;;;;;;17.93;53.82;98213.75;4360496;32;33828;-82
2023/04/24 08:48:39;;;;;;;16.15;10.32;;;;;;;18.15;53.82;98214.75;4374255;32;35155;-93
2023/04/24 08:51:09;;;;;;;15.73;10.30;;;;;;;17.72;53.53;98225.72;4374612;32;33829;-84
2023/04/24 08:53:38;;;;;;;15.93;10.73;;;;;;;17.99;55.11;98217.03;4349363;32;33542;-89
2023/04/24 08:56:06;;;;;;;13.50;9.63;;;;;;;18.64;51.58;98207.00;4362905;32;34710;-90
2023/04/24 08:58:33;;;;;;;12.88;10.50;;;;;;;18.53;52.65;98209.13;4370908;32;34184;-82
2023/04/24 09:01:01;;;;;;;12.48;9.13;;;;;;;18.23;53.54;98206.62;4374294;32;33666;-96
2023/04/24 09:03:30;;;;;;;15.43;9.13;;;;;;;18.32;51.25;98206.31;4347968;33;33958;-95
2023/04/24 09:05:58;;;;;;;13.95;9.38;;;;;;;18.46;50.71;98200.59;4348587;33;34104;-82
2023/04/24 09:08:28;;;;;;;13.20;9.02;;;;;;;18.60;51.24;98197.47;4361097;32;33751;-93
2023/04/24 09:10:58;;;;;;;10.80;8.05;;;;;;;18.85;50.76;98200.13;4347841;33;34926;-93
2023/04/24 09:13:26;;;;;;;12.90;8.90;;;;;;;19.02;48.79;98203.00;4360824;32;34228;-84
2023/04/24 09:15:54;;;;;;;14.98;9.90;;;;;;;18.62;50.36;98188.66;4347577;33;34314;-83
2023/04/24 09:18:21;;;;;;;14.63;8.90;;;;;;;18.68;49.42;98195.47;4360406;33;34616;-82
2023/04/24 09:21:08;;;;;;;13.32;8.65;;;;;;;18.63;50.36;98192.13;4358172;33;33717;-82
2023/04/24 09:23:35;;;;;;;12.85;8.50;;;;;;;18.84;49.92;98186.16;4338928;32;34072;-83
2023/04/24 09:26:06;;;;;;;12.50;8.82;;;;;;;18.61;50.76;98186.94;4352901;32;33468;-83
2023/04/24 09:28:41;;;;;;;15.07;9.02;;;;;;;18.88;50.36;98189.53;4364751;32;34569;-82
2023/04/24 09:31:13;;;;;;;12.93;8.85;;;;;;;19.37;49.96;98199.06;4364430;32;33059;-82
2023/04/24 09:33:57;;;;;;;12.60;8.25;;;;;;;19.07;49.19;98187.06;4352379;32;33421;-82
2023/04/24 09:36:37;;;;;;;12.55;9.18;;;;;;;19.37;48.67;98192.94;4374604;32;34496;-95
2023/04/24 09:39:12;;;;;;;13.18;9.05;;;;;;;19.06;49.20;98182.75;4374040;32;34230;-92
2023/04/24 09:41:59;;;;;;;12.10;9.15;;;;;;;18.95;50.64;98193.66;4367179;32;34902;-87
2023/04/24 09:44:28;;;;;;;14.13;9.57;;;;;;;19.17;50.91;98185.84;4361908;32;34764;-88
2023/04/24 09:46:59;;;;;;;11.40;9.38;;;;;;;19.24;50.50;98176.78;4368554;32;34333;-84
2023/04/24 09:49:33;;;;;;;16.65;9.57;;;;;;;19.47;48.69;98161.88;4376006;32;34252;-85
2023/04/24 09:52:09;;;;;;;13.25;8.63;;;;;;;19.20;49.63;98167.28;4375044;32;33735;-86
2023/04/24 09:54:38;;;;;;;12.95;8.45;;;;;;;19.24;48.66;98166.25;4373775;32;34591;-83
2023/04/24 09:57:07;;;;;;;15.18;8.60;;;;;;;19.00;49.33;98172.44;4374008;32;34431;-83
2023/04/24 09:59:41;;;;;;;13.23;8.77;;;;;;;19.19;48.74;98174.31;4369006;32;34219;-82
2023/04/24 10:02:20;;;;;;;14.57;8.35;;;;;;;19.60;48.03;98169.25;4370746;32;33770;-82
2023/04/24 10:04:56;;;;;;;14.45;8.70;;;;;;;19.43;48.52;98169.03;4352533;32;32692;-82
2023/04/24 10:07:25;;;;;;;;;;;;;;;19.57;47.62;98172.00;4370202;32;33823;-82
2023/04/24 10:09:54;;;;;;;13.75;8.90;;;;;;;19.33;47.52;98171.19;4356074;32;34978;-85
2023/04/24 10:12:22;;;;;;;13.15;8.25;;;;;;;19.43;47.96;98167.28;4360145;32;32812;-96
2023/04/24 10:14:50;;;;;;;11.55;8.80;;;;;;;19.54;48.39;98171.25;4378291;32;34255;-85
2023/04/24 10:17:19;;;;;;;11.30;9.07;;;;;;;19.25;49.67;98167.16;4367202;32;34998;-96
2023/04/24 10:19:47;;;;;;;11.43;8.35;;;;;;;19.40;48.85;98177.91;4353402;32;34430;-82
2023/04/24 10:22:16;;;;;;;15.48;9.52;;;;;;;19.50;47.47;98161.78;4351433;32;34065;-85
2023/04/24 10:24:46;;;;;;;14.02;8.27;;;;;;;19.66;47.61;98170.78;4354000;32;34317;-96
2023/04/24 10:27:15;;;;;;;13.40;9.55;;;;;;;19.27;47.13;98168.78;4349775;32;33469;-83
2023/04/24 10:29:44;;;;;;;14.05;8.73;;;;;;;19.41;47.42;98166.47;4379058;32;33680;-85
2023/04/24 10:32:12;;;;;;;13.48;9.00;;;;;;;19.32;47.77;98160.72;4365673;32;33165;-88
2023/04/24 10:34:40;;;;;;;16.90;8.73;;;;;;;19.33;48.34;98155.41;4369392;32;34045;-83
2023/04/24 10:37:07;;;;;;;15.43;7.95;;;;;;;19.50;47.59;98156.53;4340633;32;34133;-84
2023/04/24 10:39:37;;;;;;;15.02;8.75;;;;;;;19.70;46.51;98159.25;4349144;32;33492;-83
2023/04/24 10:42:15;;;;;;;12.85;8.80;;;;;;;19.46;46.71;98155.78;4354773;32;33031;-83
2023/04/24 10:44:43;;;;;;;15.27;9.15;;;;;;;19.67;46.41;98159.38;4348582;32;34848;-82
2023/04/24 10:47:14;;;;;;;12.45;9.05;;;;;;;19.72;46.45;98157.41;4351852;32;34400;-85
2023/04/24 10:49:42;;;;;;;16.08;9.60;;;;;;;19.49;47.54;98154.81;4370775;32;33347;-89
2023/04/24 10:52:10;;;;;;;16.60;9.82;;;;;;;19.13;48.32;98155.31;4369252;32;33859;-85
2023/04/24 10:54:45;;;;;;;15.45;8.98;;;;;;;19.37;48.04;98146.50;4368785;32;33823;-96
2023/04/24 10:57:28;;;;;;;14.50;9.80;;;;;;;19.64;47.42;98143.72;4363772;32;34599;-94
2023/04/24 11:00:21;;;;;;;13.60;9.05;;;;;;;20.14;47.42;98139.00;4361322;32;34782;-86
2023/04/24 11:02:50;;;;;;;14.05;7.93;;;;;;;19.81;47.03;98133.37;4347792;32;33277;-86
2023/04/24 11:05:19;;;;;;;10.05;6.55;;;;;;;20.06;45.67;98135.84;4362572;32;33967;-85
2023/04/24 11:08:16;;;;;;;9.07;4.10;;;;;;;20.23;45.12;98137.75;4364049;32;33775;-90
2023/04/24 11:10:45;;;;;;;7.95;3.67;;;;;;;19.94;43.01;98120.56;4356697;32;34856;-86
2023/04/24 11:13:16;;;;;;;7.93;4.30;;;;;;;20.17;42.62;98128.34;4388025;32;34526;-83
2023/04/24 11:15:44;;;;;;;7.90;3.92;;;;;;;20.38;42.99;98134.47;4381771;32;34346;-85
2023/04/24 11:18:15;;;;;;;7.65;3.40;;;;;;;20.24;42.39;98123.69;4365084;32;34031;-84
2023/04/24 11:20:44;;;;;;;7.90;3.60;;;;;;;20.25;42.35;98129.78;4357385;32;33924;-84
2023/04/24 11:23:12;;;;;;;7.37;4.03;;;;;;;20.23;43.49;98135.13;4384382;32;33665;-84
2023/04/24 11:25:41;;;;;;;7.18;3.33;;;;;;;20.44;42.15;98124.59;4356938;32;33459;-88
2023/04/24 11:28:14;;;;;;;7.97;4.07;;;;;;;20.54;43.30;98125.94;4365267;32;34489;-84
2023/04/24 11:30:42;;;;;;;10.43;4.00;;;;;;;20.65;42.30;98126.31;4363293;32;34324;-94